createdAt,value
2023-04-27T00:01:41.352Z,43.80
2023-04-27T00:04:08.393Z,43.69
2023-04-27T00:06:35.348Z,43.72
2023-04-27T00:09:02.297Z,43.72
2023-04-27T00:11:29.244Z,43.84
2023-04-27T00:13:56.635Z,43.86
2023-04-27T00:16:23.558Z,44.30
2023-04-27T00:18:50.434Z,43.94
2023-04-27T00:21:17.356Z,44.13
2023-04-27T00:23:44.480Z,44.11
2023-04-27T00:26:11.484Z,43.85
2023-04-27T00:28:39.540Z,44.06
2023-04-27T00:31:06.435Z,43.91
2023-04-27T00:33:33.223Z,43.87
2023-04-27T00:36:01.566Z,44.01
2023-04-27T00:38:29.531Z,44.00
2023-04-27T00:41:07.141Z,44.22
2023-04-27T00:43:42.506Z,44.42
2023-04-27T00:46:10.794Z,44.10
2023-04-27T00:48:38.322Z,44.23
2023-04-27T00:51:06.216Z,44.26
2023-04-27T00:53:35.058Z,44.19
2023-04-27T00:56:01.901Z,44.33
2023-04-27T00:58:29.364Z,44.35
2023-04-27T01:00:56.427Z,44.25
2023-04-27T01:03:23.517Z,44.37
2023-04-27T01:05:50.472Z,44.46
2023-04-27T01:08:17.238Z,44.37
2023-04-27T01:10:44.104Z,44.46
2023-04-27T01:13:11.599Z,44.43
2023-04-27T01:15:39.374Z,44.50
2023-04-27T01:18:09.767Z,44.53
2023-04-27T01:20:38.414Z,44.45
2023-04-27T01:23:05.228Z,44.57
2023-04-27T01:25:32.053Z,44.86
2023-04-27T01:28:02.887Z,44.69
2023-04-27T01:30:30.277Z,44.71
2023-04-27T01:32:59.111Z,44.76
2023-04-27T01:35:28.203Z,44.86
2023-04-27T01:38:00.391Z,44.89
2023-04-27T01:40:27.361Z,45.02
2023-04-27T01:42:54.151Z,45.14
2023-04-27T01:45:21.147Z,45.07
2023-04-27T01:47:47.954Z,45.00
2023-04-27T01:50:14.813Z,45.30
2023-04-27T01:52:41.653Z,45.00
2023-04-27T01:55:08.976Z,45.18
2023-04-27T01:57:35.932Z,44.85
2023-04-27T02:00:03.776Z,45.14
2023-04-27T02:02:47.647Z,44.97
2023-04-27T02:05:16.213Z,45.15
2023-04-27T02:07:43.194Z,45.32
2023-04-27T02:10:10.902Z,45.20
2023-04-27T02:12:37.702Z,45.32
2023-04-27T02:15:05.951Z,45.38
2023-04-27T02:17:35.003Z,45.41
2023-04-27T02:20:01.967Z,45.41
2023-04-27T02:22:28.767Z,45.24
2023-04-27T02:24:55.639Z,45.34
2023-04-27T02:27:22.466Z,45.56
2023-04-27T02:29:49.692Z,45.48
2023-04-27T02:32:17.032Z,45.66
2023-04-27T02:34:44.359Z,45.67
2023-04-27T02:37:11.217Z,45.85
2023-04-27T02:39:38.246Z,45.73
2023-04-27T02:42:06.587Z,45.81
2023-04-27T02:44:33.417Z,45.71
2023-04-27T02:47:00.306Z,45.96
2023-04-27T02:49:27.167Z,45.78
2023-04-27T02:51:53.962Z,45.81
2023-04-27T02:54:20.834Z,45.77
2023-04-27T02:56:47.646Z,45.73
2023-04-27T02:59:14.771Z,45.85
2023-04-27T03:01:41.939Z,45.97
2023-04-27T03:04:09.125Z,45.87
2023-04-27T03:06:36.151Z,46.00
2023-04-27T03:09:03.717Z,46.06
2023-04-27T03:11:30.550Z,45.94
2023-04-27T03:13:57.937Z,46.13
2023-04-27T03:16:24.843Z,46.13
2023-04-27T03:18:51.663Z,46.06
2023-04-27T03:21:18.538Z,46.34
2023-04-27T03:23:49.246Z,46.06
2023-04-27T03:26:16.688Z,46.28
2023-04-27T03:28:43.547Z,46.27
2023-04-27T03:31:13.662Z,46.36
2023-04-27T03:33:41.515Z,46.39
2023-04-27T03:36:10.548Z,46.53
2023-04-27T03:38:37.682Z,46.25
2023-04-27T03:41:04.749Z,46.28
2023-04-27T03:43:31.614Z,46.29
2023-04-27T03:45:58.622Z,46.47
2023-04-27T03:48:26.144Z,46.40
2023-04-27T03:50:55.251Z,46.50
2023-04-27T03:53:22.078Z,46.49
2023-04-27T03:55:49.627Z,46.42
2023-04-27T03:58:17.466Z,46.54
2023-04-27T04:01:04.629Z,46.61
2023-04-27T04:03:31.938Z,46.49
2023-04-27T04:05:58.895Z,46.32
2023-04-27T04:08:25.945Z,46.37
2023-04-27T04:10:52.804Z,46.50
2023-04-27T04:13:19.758Z,46.45
2023-04-27T04:15:46.599Z,46.26
2023-04-27T04:18:13.467Z,46.58
2023-04-27T04:20:40.811Z,46.59
2023-04-27T04:23:07.908Z,46.83
2023-04-27T04:25:35.130Z,46.73
2023-04-27T04:28:01.878Z,46.56
2023-04-27T04:30:28.920Z,46.71
2023-04-27T04:32:55.793Z,46.82
2023-04-27T04:35:22.801Z,46.90
2023-04-27T04:37:50.391Z,46.77
2023-04-27T04:40:17.594Z,47.11
2023-04-27T04:42:44.422Z,46.89
2023-04-27T04:45:11.746Z,47.12
2023-04-27T04:47:39.617Z,47.17
2023-04-27T04:50:09.258Z,47.17
2023-04-27T04:52:37.127Z,46.91
2023-04-27T04:55:04.723Z,47.24
2023-04-27T04:57:32.923Z,47.25
2023-04-27T04:59:59.782Z,47.35
2023-04-27T05:02:27.206Z,47.34
2023-04-27T05:04:54.281Z,47.22
2023-04-27T05:07:24.642Z,47.32
2023-04-27T05:09:52.221Z,47.28
2023-04-27T05:12:19.052Z,47.33
2023-04-27T05:14:45.909Z,47.46
2023-04-27T05:17:12.671Z,47.30
2023-04-27T05:19:39.461Z,47.37
2023-04-27T05:22:06.304Z,47.31
2023-04-27T05:24:33.685Z,47.47
2023-04-27T05:27:02.318Z,47.52
2023-04-27T05:29:29.540Z,47.36
2023-04-27T05:31:56.493Z,47.42
2023-04-27T05:34:23.498Z,47.42
2023-04-27T05:36:50.425Z,47.51
2023-04-27T05:39:17.246Z,47.40
2023-04-27T05:41:44.080Z,47.49
2023-04-27T05:44:10.888Z,47.25
2023-04-27T05:46:38.693Z,47.44
2023-04-27T05:49:05.950Z,47.36
2023-04-27T05:51:33.498Z,47.39
2023-04-27T05:54:01.821Z,47.58
2023-04-27T05:56:28.798Z,47.45
2023-04-27T05:58:55.703Z,47.62
2023-04-27T06:01:23.380Z,47.52
2023-04-27T06:03:50.321Z,47.62
2023-04-27T06:06:18.210Z,47.52
2023-04-27T06:08:45.041Z,47.55
2023-04-27T06:11:12.029Z,47.42
2023-04-27T06:13:38.822Z,47.59
2023-04-27T06:16:06.035Z,47.29
2023-04-27T06:18:32.869Z,47.41
2023-04-27T06:21:03.767Z,47.57
2023-04-27T06:23:30.986Z,47.38
2023-04-27T06:25:58.763Z,47.44
2023-04-27T06:28:25.872Z,47.08
2023-04-27T06:30:53.940Z,47.13
2023-04-27T06:33:20.809Z,47.15
2023-04-27T06:35:47.703Z,47.08
2023-04-27T06:38:14.620Z,46.89
2023-04-27T06:40:41.704Z,46.92
2023-04-27T06:43:08.492Z,46.92
2023-04-27T06:45:35.937Z,46.87
2023-04-27T06:48:02.748Z,47.12
2023-04-27T06:50:30.433Z,46.76
2023-04-27T06:52:57.245Z,46.60
2023-04-27T06:55:24.225Z,46.73
2023-04-27T06:57:51.079Z,46.71
2023-04-27T07:00:18.570Z,46.62
2023-04-27T07:02:45.544Z,46.81
2023-04-27T07:05:12.698Z,46.67
2023-04-27T07:07:39.592Z,46.30
2023-04-27T07:10:07.646Z,46.25
2023-04-27T07:12:34.505Z,46.37
2023-04-27T07:15:03.604Z,46.16
2023-04-27T07:17:30.729Z,46.04
2023-04-27T07:19:57.622Z,45.50
2023-04-27T07:22:24.430Z,45.63
2023-04-27T07:24:51.432Z,44.94
2023-04-27T07:27:18.293Z,45.00
2023-04-27T07:29:45.097Z,44.76
2023-04-27T07:32:11.956Z,44.70
2023-04-27T07:34:51.963Z,44.07
2023-04-27T07:37:20.900Z,43.73
2023-04-27T07:39:50.269Z,43.84
2023-04-27T07:42:17.379Z,43.60
2023-04-27T07:44:44.464Z,43.21
2023-04-27T07:47:11.374Z,42.94
2023-04-27T07:49:38.169Z,42.53
2023-04-27T07:52:05.255Z,42.17
2023-04-27T07:54:32.102Z,41.67
2023-04-27T07:56:58.914Z,41.43
2023-04-27T07:59:29.288Z,40.99
2023-04-27T08:02:07.099Z,40.89
2023-04-27T08:04:43.430Z,40.67
2023-04-27T08:07:10.827Z,40.60
2023-04-27T08:09:37.814Z,40.32
2023-04-27T08:12:04.976Z,39.97
2023-04-27T08:14:35.309Z,39.28
2023-04-27T08:17:02.322Z,39.31
2023-04-27T08:19:29.239Z,39.01
2023-04-27T08:21:56.052Z,38.56
2023-04-27T08:24:22.885Z,38.75
2023-04-27T08:26:49.729Z,38.54
2023-04-27T08:29:26.865Z,38.23
2023-04-27T08:31:58.292Z,38.12
2023-04-27T08:34:26.084Z,38.10
2023-04-27T08:36:54.060Z,37.45
2023-04-27T08:39:21.691Z,37.51
2023-04-27T08:41:48.533Z,37.28
2023-04-27T08:44:15.985Z,37.26
2023-04-27T08:46:43.558Z,37.05
2023-04-27T08:49:10.743Z,36.93
2023-04-27T08:51:37.669Z,37.40
2023-04-27T08:54:04.681Z,37.29
2023-04-27T08:56:31.780Z,37.01
2023-04-27T08:58:59.021Z,36.70
2023-04-27T09:01:27.425Z,36.64
2023-04-27T09:04:00.304Z,36.33
2023-04-27T09:06:35.566Z,36.27
2023-04-27T09:09:03.901Z,36.28
2023-04-27T09:11:34.718Z,36.06
2023-04-27T09:14:04.712Z,35.64
2023-04-27T09:16:31.897Z,36.61
2023-04-27T09:18:59.381Z,35.85
2023-04-27T09:21:29.042Z,35.99
2023-04-27T09:23:56.683Z,35.65
2023-04-27T09:26:26.779Z,35.36
2023-04-27T09:28:57.800Z,35.26
2023-04-27T09:31:35.381Z,34.89
2023-04-27T09:34:03.674Z,34.96
2023-04-27T09:36:32.511Z,34.98
2023-04-27T09:39:04.597Z,34.77
2023-04-27T09:41:33.273Z,34.72
2023-04-27T09:44:01.633Z,34.86
2023-04-27T09:46:29.882Z,34.96
2023-04-27T09:48:57.547Z,34.63
2023-04-27T09:51:24.440Z,34.40
2023-04-27T09:53:58.761Z,33.75
2023-04-27T09:57:08.690Z,33.99
2023-04-27T09:59:53.542Z,35.19
2023-04-27T10:02:24.771Z,34.50
2023-04-27T10:05:03.597Z,33.23
2023-04-27T10:07:31.899Z,33.77
2023-04-27T10:10:03.107Z,33.71
2023-04-27T10:12:36.703Z,32.94
2023-04-27T10:15:15.756Z,32.87
2023-04-27T10:17:51.433Z,33.14
2023-04-27T10:20:37.658Z,32.90
2023-04-27T10:23:05.071Z,32.51
2023-04-27T10:25:41.456Z,32.58
2023-04-27T10:28:09.004Z,32.75
2023-04-27T10:30:38.804Z,32.47
2023-04-27T10:33:10.993Z,31.94
2023-04-27T10:35:53.431Z,31.71
2023-04-27T10:38:26.890Z,31.37
2023-04-27T10:41:01.879Z,30.95
2023-04-27T10:43:31.708Z,31.09
2023-04-27T10:46:15.760Z,31.13
2023-04-27T10:48:44.064Z,31.19
2023-04-27T10:51:15.484Z,30.70
2023-04-27T10:53:42.517Z,30.38
2023-04-27T10:56:10.945Z,30.26
2023-04-27T10:58:48.422Z,30.42
2023-04-27T11:01:26.992Z,30.26
2023-04-27T11:03:59.544Z,30.43
2023-04-27T11:06:28.779Z,30.40
2023-04-27T11:08:55.766Z,30.85
2023-04-27T11:11:22.825Z,29.96
2023-04-27T11:13:50.336Z,30.05
2023-04-27T11:16:19.288Z,30.26
2023-04-27T11:18:46.213Z,30.11
2023-04-27T11:21:16.871Z,29.94
2023-04-27T11:23:44.034Z,30.42
2023-04-27T11:26:18.534Z,30.44
2023-04-27T11:29:10.101Z,30.87
2023-04-27T11:31:51.558Z,31.20
2023-04-27T11:34:22.633Z,30.61
2023-04-27T11:39:41.109Z,29.36
2023-04-27T11:42:25.063Z,29.79
2023-04-27T11:45:05.904Z,29.52
2023-04-27T11:47:35.176Z,29.94
2023-04-27T11:50:06.332Z,29.65
2023-04-27T11:52:36.434Z,29.32
2023-04-27T11:55:04.595Z,29.13
2023-04-27T11:57:35.849Z,29.52
2023-04-27T12:00:11.870Z,29.41
2023-04-27T12:02:43.985Z,29.36
2023-04-27T12:05:13.128Z,29.00
2023-04-27T12:07:41.249Z,28.78
2023-04-27T12:10:08.963Z,28.46
2023-04-27T12:12:36.134Z,28.25
2023-04-27T12:15:03.300Z,27.84
2023-04-27T12:17:30.261Z,27.99
2023-04-27T12:19:57.176Z,27.89
2023-04-27T12:22:24.032Z,27.89
2023-04-27T12:24:51.271Z,27.14
2023-04-27T12:27:18.259Z,27.32
2023-04-27T12:29:45.125Z,26.91
2023-04-27T12:32:12.017Z,26.80
2023-04-27T12:34:39.443Z,26.90
2023-04-27T12:37:06.593Z,26.74
2023-04-27T12:39:33.372Z,26.81
2023-04-27T12:42:00.164Z,26.43
2023-04-27T12:44:27.109Z,26.28
2023-04-27T12:46:54.116Z,27.00
2023-04-27T12:49:21.190Z,27.03
2023-04-27T12:51:51.485Z,26.36
2023-04-27T12:54:18.475Z,26.40
2023-04-27T12:56:45.459Z,26.34
2023-04-27T12:59:12.271Z,26.60
2023-04-27T13:01:39.136Z,26.74
2023-04-27T13:04:07.064Z,26.79
2023-04-27T13:06:34.245Z,26.93
2023-04-27T13:09:02.638Z,26.91
2023-04-27T13:11:29.640Z,26.72
2023-04-27T13:13:56.463Z,26.99
2023-04-27T13:16:25.516Z,26.57
2023-04-27T13:18:55.366Z,26.88
2023-04-27T13:21:22.641Z,26.97
2023-04-27T13:23:49.654Z,26.90
2023-04-27T13:26:16.940Z,26.58
2023-04-27T13:28:43.927Z,26.45
2023-04-27T13:31:10.901Z,26.62
2023-04-27T13:33:42.957Z,26.54
2023-04-27T13:36:11.397Z,26.50
2023-04-27T13:38:38.592Z,26.84
2023-04-27T13:41:06.629Z,27.06
2023-04-27T13:43:33.689Z,26.39
2023-04-27T13:46:01.757Z,26.71
2023-04-27T13:48:30.234Z,26.67
2023-04-27T13:50:57.732Z,26.50
2023-04-27T13:53:25.766Z,26.40
2023-04-27T13:55:57.959Z,26.71
2023-04-27T13:58:28.906Z,26.78
2023-04-27T14:00:55.860Z,26.97
2023-04-27T14:03:23.080Z,27.32
2023-04-27T14:05:51.402Z,27.48
2023-04-27T14:08:18.929Z,27.23
2023-04-27T14:10:46.105Z,26.97
2023-04-27T14:13:13.339Z,27.26
2023-04-27T14:15:41.182Z,26.97
2023-04-27T14:18:09.769Z,27.12
2023-04-27T14:20:38.631Z,27.20
2023-04-27T14:23:06.154Z,27.15
2023-04-27T14:25:34.300Z,27.15
2023-04-27T14:28:06.225Z,26.90
2023-04-27T14:30:33.942Z,27.19
2023-04-27T14:33:01.352Z,26.98
2023-04-27T14:35:28.356Z,26.74
2023-04-27T14:37:56.938Z,27.14
2023-04-27T14:40:23.846Z,27.08
2023-04-27T14:42:50.686Z,26.92
2023-04-27T14:45:18.810Z,27.01
2023-04-27T14:47:45.764Z,26.77
2023-04-27T14:50:14.836Z,27.01
2023-04-27T14:52:41.725Z,27.10
2023-04-27T14:55:09.348Z,26.95
2023-04-27T14:57:36.761Z,27.08
2023-04-27T15:00:09.736Z,26.92
2023-04-27T15:02:37.991Z,26.97
2023-04-27T15:05:07.073Z,27.02
2023-04-27T15:07:33.928Z,27.51
2023-04-27T15:10:00.703Z,27.57
2023-04-27T15:12:27.734Z,27.27
2023-04-27T15:14:54.650Z,26.92
2023-04-27T15:17:21.610Z,26.89
2023-04-27T15:19:48.489Z,27.37
2023-04-27T15:22:15.429Z,27.22
2023-04-27T15:24:42.197Z,27.60
2023-04-27T15:27:10.087Z,27.48
2023-04-27T15:29:37.417Z,27.18
2023-04-27T15:32:04.564Z,26.84
2023-04-27T15:34:31.783Z,27.14
2023-04-27T15:36:58.595Z,27.06
2023-04-27T15:39:26.870Z,27.39
2023-04-27T15:41:53.738Z,27.54
2023-04-27T15:44:20.697Z,27.58
2023-04-27T15:46:47.556Z,27.33
2023-04-27T15:49:14.588Z,27.66
2023-04-27T15:51:41.587Z,27.70
2023-04-27T15:54:08.428Z,27.72
2023-04-27T15:56:35.246Z,27.11
2023-04-27T15:59:02.033Z,27.12
2023-04-27T16:01:28.882Z,27.09
2023-04-27T16:03:56.579Z,26.87
2023-04-27T16:06:33.225Z,26.64
2023-04-27T16:09:01.298Z,26.95
2023-04-27T16:11:28.124Z,27.21
2023-04-27T16:13:54.983Z,27.26
2023-04-27T16:16:21.985Z,27.99
2023-04-27T16:18:48.856Z,27.72
2023-04-27T16:21:15.814Z,27.44
2023-04-27T16:23:42.592Z,26.32
2023-04-27T16:26:09.413Z,25.86
2023-04-27T16:28:36.306Z,25.38
2023-04-27T16:31:03.202Z,24.08
2023-04-27T16:33:30.033Z,23.60
2023-04-27T16:35:57.252Z,23.12
2023-04-27T16:38:24.058Z,22.51
2023-04-27T16:40:52.552Z,22.31
2023-04-27T16:43:19.369Z,21.57
2023-04-27T16:45:46.351Z,21.04
2023-04-27T16:48:13.150Z,20.42
2023-04-27T16:50:40.881Z,20.31
2023-04-27T16:53:19.528Z,20.03
2023-04-27T16:55:46.446Z,20.03
2023-04-27T16:58:13.331Z,19.79
2023-04-27T17:00:40.788Z,18.96
2023-04-27T17:03:07.743Z,18.95
2023-04-27T17:05:34.703Z,18.96
2023-04-27T17:08:03.611Z,18.26
2023-04-27T17:10:32.151Z,18.69
2023-04-27T17:12:59.241Z,18.43
2023-04-27T17:15:28.424Z,18.26
2023-04-27T17:17:55.463Z,18.44
2023-04-27T17:20:22.497Z,18.45
2023-04-27T17:22:49.268Z,18.66
2023-04-27T17:25:16.655Z,18.99
2023-04-27T17:27:43.498Z,19.06
2023-04-27T17:30:10.932Z,19.16
2023-04-27T17:32:37.957Z,19.31
2023-04-27T17:35:05.709Z,19.69
2023-04-27T17:37:32.632Z,20.43
2023-04-27T17:39:59.569Z,20.40
2023-04-27T17:42:26.426Z,20.93
2023-04-27T17:44:53.302Z,20.87
2023-04-27T17:47:22.286Z,21.53
2023-04-27T17:49:49.128Z,21.66
2023-04-27T17:52:16.113Z,22.42
2023-04-27T17:54:43.245Z,22.43
2023-04-27T17:57:10.093Z,22.62
2023-04-27T17:59:37.050Z,23.09
2023-04-27T18:02:03.905Z,23.28
2023-04-27T18:04:30.864Z,23.55
2023-04-27T18:06:57.790Z,24.02
2023-04-27T18:09:26.245Z,24.95
2023-04-27T18:11:53.153Z,24.82
2023-04-27T18:14:20.989Z,24.83
2023-04-27T18:16:47.906Z,25.45
2023-04-27T18:19:14.946Z,25.76
2023-04-27T18:21:41.947Z,26.40
2023-04-27T18:24:08.987Z,26.88
2023-04-27T18:26:38.826Z,27.08
2023-04-27T18:29:05.638Z,27.44
2023-04-27T18:31:32.548Z,27.56
2023-04-27T18:33:59.444Z,27.54
2023-04-27T18:36:27.527Z,28.07
2023-04-27T18:38:55.361Z,28.85
2023-04-27T18:41:22.294Z,29.50
2023-04-27T18:43:49.078Z,29.36
2023-04-27T18:46:15.925Z,29.77
2023-04-27T18:48:42.751Z,29.52
2023-04-27T18:51:09.546Z,30.13
2023-04-27T18:53:36.608Z,30.27
2023-04-27T18:56:03.702Z,30.10
2023-04-27T18:58:30.512Z,30.54
2023-04-27T19:00:57.354Z,30.84
2023-04-27T19:03:25.661Z,30.79
2023-04-27T19:05:52.777Z,31.21
2023-04-27T19:08:19.575Z,31.06
2023-04-27T19:10:46.366Z,31.73
2023-04-27T19:13:13.285Z,31.84
2023-04-27T19:15:40.370Z,31.99
2023-04-27T19:18:11.248Z,32.21
2023-04-27T19:20:39.222Z,32.48
2023-04-27T19:23:07.763Z,32.57
2023-04-27T19:25:35.185Z,32.70
2023-04-27T19:28:02.017Z,33.14
2023-04-27T19:30:28.943Z,33.40
2023-04-27T19:32:55.772Z,33.77
2023-04-27T19:35:23.722Z,33.98
2023-04-27T19:37:50.991Z,33.85
2023-04-27T19:40:18.441Z,34.30
2023-04-27T19:42:45.480Z,34.24
2023-04-27T19:45:12.508Z,34.35
2023-04-27T19:47:39.426Z,34.59
2023-04-27T19:50:06.923Z,34.66
2023-04-27T19:52:33.784Z,34.77
2023-04-27T19:55:00.828Z,34.91
2023-04-27T19:57:27.697Z,34.88
2023-04-27T19:59:54.552Z,34.85
2023-04-27T20:02:21.528Z,34.92
2023-04-27T20:04:48.999Z,35.08
2023-04-27T20:07:16.000Z,35.22
2023-04-27T20:09:42.988Z,35.36
2023-04-27T20:12:23.741Z,35.55
2023-04-27T20:14:56.608Z,35.74
2023-04-27T20:17:25.926Z,36.05
2023-04-27T20:19:57.043Z,36.10
2023-04-27T20:22:23.951Z,36.36
2023-04-27T20:24:50.912Z,36.37
2023-04-27T20:27:17.766Z,36.97
2023-04-27T20:29:46.518Z,36.74
2023-04-27T20:32:13.523Z,36.86
2023-04-27T20:34:40.406Z,37.06
2023-04-27T20:37:07.411Z,37.28
2023-04-27T20:39:34.941Z,37.38
2023-04-27T20:42:01.881Z,37.49
2023-04-27T20:44:28.645Z,37.47
2023-04-27T20:46:55.552Z,37.67
2023-04-27T20:49:32.070Z,37.72
2023-04-27T20:52:01.625Z,37.74
2023-04-27T20:54:30.881Z,37.94
2023-04-27T20:56:57.763Z,38.15
2023-04-27T20:59:24.640Z,38.17
2023-04-27T21:01:51.477Z,38.25
2023-04-27T21:04:18.549Z,38.18
2023-04-27T21:06:45.810Z,38.28
2023-04-27T21:09:12.654Z,38.28
2023-04-27T21:11:39.487Z,38.32
2023-04-27T21:14:06.286Z,38.29
2023-04-27T21:16:33.115Z,38.54
2023-04-27T21:18:59.939Z,38.38
2023-04-27T21:21:26.928Z,38.52
2023-04-27T21:24:04.106Z,38.44
2023-04-27T21:26:34.484Z,38.66
2023-04-27T21:29:01.435Z,38.69
2023-04-27T21:31:28.332Z,38.67
2023-04-27T21:33:55.200Z,38.87
2023-04-27T21:36:21.979Z,38.82
2023-04-27T21:38:49.014Z,38.79
2023-04-27T21:41:17.566Z,39.17
2023-04-27T21:43:44.953Z,39.28
2023-04-27T21:46:11.821Z,39.12
2023-04-27T21:48:38.666Z,39.12
2023-04-27T21:51:05.713Z,39.26
2023-04-27T21:53:32.527Z,39.54
2023-04-27T21:56:00.130Z,39.24
2023-04-27T21:58:26.992Z,39.47
2023-04-27T22:00:53.887Z,39.39
2023-04-27T22:03:21.589Z,39.49
2023-04-27T22:05:52.727Z,39.46
2023-04-27T22:08:19.726Z,39.55
2023-04-27T22:10:47.044Z,39.62
2023-04-27T22:15:43.698Z,39.73
2023-04-27T22:18:10.530Z,39.66
2023-04-27T22:20:37.338Z,39.85
2023-04-27T22:23:04.215Z,39.94
2023-04-27T22:25:31.503Z,39.84
2023-04-27T22:27:58.522Z,40.08
2023-04-27T22:30:25.603Z,40.25
2023-04-27T22:32:52.490Z,40.59
2023-04-27T22:35:26.496Z,40.30
2023-04-27T22:37:59.085Z,40.86
2023-04-27T22:40:26.289Z,40.78
2023-04-27T22:42:54.871Z,40.51
2023-04-27T22:45:22.885Z,40.86
2023-04-27T22:47:49.988Z,41.03
2023-04-27T22:50:16.919Z,40.87
2023-04-27T22:52:43.785Z,41.02
2023-04-27T22:55:12.381Z,40.77
2023-04-27T22:57:40.085Z,41.09
2023-04-27T23:00:11.458Z,41.24
2023-04-27T23:02:42.620Z,41.32
2023-04-27T23:05:10.783Z,41.35
2023-04-27T23:07:40.822Z,41.21
2023-04-27T23:10:08.591Z,41.37
2023-04-27T23:12:35.479Z,41.58
2023-04-27T23:15:02.324Z,41.44
2023-04-27T23:17:31.883Z,41.60
2023-04-27T23:20:00.846Z,41.49
2023-04-27T23:22:28.358Z,41.31
2023-04-27T23:24:55.342Z,41.55
2023-04-27T23:27:23.547Z,41.50
2023-04-27T23:29:50.647Z,41.76
2023-04-27T23:32:17.783Z,41.95
2023-04-27T23:34:44.646Z,41.77
2023-04-27T23:37:11.914Z,41.68
2023-04-27T23:39:38.741Z,41.92
2023-04-27T23:42:05.779Z,41.89
2023-04-27T23:44:32.618Z,41.88
2023-04-27T23:46:59.451Z,41.90
2023-04-27T23:49:26.268Z,41.94
2023-04-27T23:51:53.225Z,41.72
2023-04-27T23:54:20.077Z,41.97
2023-04-27T23:56:47.153Z,41.94
2023-04-27T23:59:15.030Z,41.92
